Jennings, Kansas
Current Conditions -  °F | °C
As of 10:53 PM on Monday 20 Oct 2014 (Local Time) from KHLC Reporting Station
Clear Clear  
Wind Chill: 56°   Ceiling: Unl
Heat Index: 56°   Visibility: 10mi
Dew Point: 42°   Wind: 0mph
Humidity: 60%   Direction: NA
Pressure: 30.09"   Gusts: NA
Location:  39.68°N, 100.29°W
Report Text: KHLC 210353Z AUTO 00000KT 10SM CLR 13/06 A3009 RMK AO2 SLP181 T01330056
Loading
Personal Weather Stations






























Interactive Weather Map
Tropical Storm Tracking
New forecast layout! Learn more

10-Day Weather Forecast

Advertisements
Track Severe Weather on mobile